Time;durP1;ratioP1;P1;durP2;ratioP2;P2;SDS_P1;SDS_P2;PMS_P1;PMS_P2;Temp;Humidity;BMP_temperature;BMP_pressure;BME280_temperature;BME280_humidity;BME280_pressure;Samples;Min_cycle;Max_cycle;Signal;HPM_P1;HPM_P2
2021/06/10 00:01:18;;;;;;;7.27;6.57;;;18.00;99.90;;;;;;7640477;23;20199;-70
2021/06/10 00:04:20;;;;;;;7.93;7.13;;;17.90;99.90;;;;;;7588910;23;20255;-70
2021/06/10 00:07:23;;;;;;;7.47;6.77;;;17.90;99.90;;;;;;7640166;23;20164;-70
2021/06/10 00:10:29;;;;;;;7.43;6.73;;;17.90;99.90;;;;;;7639554;23;20207;-70
2021/06/10 00:13:31;;;;;;;8.47;7.70;;;17.90;99.90;;;;;;7640051;23;20256;-70
2021/06/10 00:16:38;;;;;;;7.50;6.70;;;17.80;99.90;;;;;;7615470;23;20161;-70
2021/06/10 00:19:41;;;;;;;8.20;7.40;;;17.80;99.90;;;;;;7640322;23;20605;-70
2021/06/10 00:22:45;;;;;;;7.40;6.60;;;17.80;99.90;;;;;;7641082;23;20169;-71
2021/06/10 00:25:48;;;;;;;6.50;6.00;;;17.70;99.90;;;;;;7641206;23;20176;-71
2021/06/10 00:28:50;;;;;;;6.93;6.33;;;17.70;99.90;;;;;;7616990;23;20177;-71
2021/06/10 00:31:53;;;;;;;7.67;6.90;;;17.70;99.90;;;;;;7617106;23;20251;-71
2021/06/10 00:34:55;;;;;;;7.20;6.50;;;17.80;99.90;;;;;;7643732;23;20191;-71
2021/06/10 00:37:59;;;;;;;8.13;7.43;;;17.70;99.90;;;;;;7643803;23;20191;-71
2021/06/10 00:41:02;;;;;;;8.47;7.67;;;17.70;99.90;;;;;;7617980;23;20606;-71
2021/06/10 00:44:07;;;;;;;7.70;7.00;;;17.60;99.90;;;;;;7618320;23;20165;-71
2021/06/10 00:47:09;;;;;;;7.43;6.80;;;17.50;99.90;;;;;;7617819;23;20164;-71
2021/06/10 00:50:13;;;;;;;8.10;7.30;;;17.50;99.90;;;;;;7618079;23;20545;-71
2021/06/10 00:53:21;;;;;;;7.93;7.23;;;17.50;99.90;;;;;;7617961;23;20211;-71
2021/06/10 00:56:24;;;;;;;7.30;6.70;;;17.50;99.90;;;;;;7616746;23;20165;-71
2021/06/10 00:59:26;;;;;;;8.03;7.33;;;17.50;99.90;;;;;;7583358;23;20206;-71
2021/06/10 01:02:28;;;;;;;7.90;7.17;;;17.50;99.90;;;;;;7580377;23;20161;-71
2021/06/10 01:05:31;;;;;;;7.47;6.87;;;17.50;99.90;;;;;;7556467;23;20221;-71
2021/06/10 01:09:03;;;;;;;7.90;7.20;;;17.50;99.90;;;;;;7580136;23;20184;-71
2021/06/10 01:12:33;;;;;;;8.10;7.50;;;17.50;99.90;;;;;;7604628;23;20212;-71
2021/06/10 01:15:40;;;;;;;8.17;7.47;;;17.50;99.90;;;;;;7579214;23;20172;-71
2021/06/10 01:18:43;;;;;;;8.20;7.50;;;17.50;99.90;;;;;;7605325;23;20150;-71
2021/06/10 01:21:47;;;;;;;8.63;7.80;;;17.50;99.90;;;;;;7607296;23;20204;-71
2021/06/10 01:25:07;;;;;;;7.67;7.07;;;17.50;99.90;;;;;;7606212;23;20556;-71
2021/06/10 01:28:14;;;;;;;7.67;6.97;;;17.50;99.90;;;;;;7580294;23;20560;-71
2021/06/10 01:31:16;;;;;;;7.70;7.00;;;17.40;99.90;;;;;;7581385;23;20154;-71
2021/06/10 01:34:20;;;;;;;7.57;6.93;;;17.50;99.90;;;;;;7604169;23;20186;-71
2021/06/10 01:37:24;;;;;;;7.83;7.17;;;17.50;99.90;;;;;;7605016;23;20185;-71
2021/06/10 01:40:27;;;;;;;7.97;7.27;;;17.40;99.90;;;;;;7554642;23;20479;-71
2021/06/10 01:43:36;;;;;;;7.17;6.50;;;17.40;99.90;;;;;;7604201;23;20217;-71
2021/06/10 01:46:38;;;;;;;8.40;7.70;;;17.50;99.90;;;;;;7578143;23;20165;-72
2021/06/10 01:49:41;;;;;;;7.43;6.73;;;17.40;99.90;;;;;;7604572;23;20599;-71
2021/06/10 01:52:46;;;;;;;8.17;7.37;;;17.40;99.90;;;;;;7578905;23;20201;-71
2021/06/10 01:55:51;;;;;;;7.47;6.87;;;17.40;99.90;;;;;;7605162;23;20210;-71
2021/06/10 01:58:54;;;;;;;7.57;6.90;;;17.30;99.90;;;;;;7581133;23;20340;-71
2021/06/10 02:02:00;;;;;;;8.00;7.27;;;17.30;99.90;;;;;;7602979;23;20250;-71
2021/06/10 02:05:06;;;;;;;7.27;6.67;;;17.30;99.90;;;;;;7578278;23;20178;-71
2021/06/10 02:08:11;;;;;;;7.03;6.33;;;17.40;99.90;;;;;;7602749;23;20154;-71
2021/06/10 02:11:14;;;;;;;7.93;7.23;;;17.40;99.90;;;;;;7602369;23;20162;-72
2021/06/10 02:14:19;;;;;;;7.60;6.97;;;17.40;99.90;;;;;;7603187;23;20240;-72
2021/06/10 02:17:21;;;;;;;7.63;6.93;;;17.30;99.90;;;;;;7579997;23;20166;-72
2021/06/10 02:20:24;;;;;;;7.97;7.23;;;17.20;99.90;;;;;;7606157;23;20169;-72
2021/06/10 02:23:26;;;;;;;9.00;8.20;;;17.20;99.90;;;;;;7605409;23;20610;-73
2021/06/10 02:26:29;;;;;;;9.03;8.13;;;17.20;99.90;;;;;;7578474;23;20173;-73
2021/06/10 02:29:31;;;;;;;7.87;7.17;;;17.20;99.90;;;;;;7604354;23;20179;-73
2021/06/10 02:32:34;;;;;;;8.50;7.30;;;17.20;99.90;;;;;;7578237;23;20252;-72
2021/06/10 02:35:36;;;;;;;7.73;7.00;;;17.20;99.90;;;;;;7604445;23;20470;-73
2021/06/10 02:39:03;;;;;;;7.20;6.10;;;17.20;99.90;;;;;;7578268;23;20169;-73
2021/06/10 02:42:07;;;;;;;5.53;5.03;;;17.20;99.90;;;;;;7578230;23;20177;-73
2021/06/10 02:45:11;;;;;;;6.07;4.80;;;17.20;99.90;;;;;;7578764;23;20173;-72
2021/06/10 02:48:14;;;;;;;5.23;4.73;;;17.20;99.90;;;;;;7603988;23;20169;-73
2021/06/10 02:51:17;;;;;;;4.53;4.23;;;17.10;99.90;;;;;;7604434;23;20176;-73
2021/06/10 02:54:21;;;;;;;4.87;4.47;;;17.00;99.90;;;;;;7603616;23;20190;-73
2021/06/10 02:57:25;;;;;;;4.97;4.57;;;17.00;99.90;;;;;;7609343;23;20192;-72
2021/06/10 03:00:31;;;;;;;5.40;4.90;;;16.90;99.90;;;;;;7640554;23;20165;-72
2021/06/10 03:03:35;;;;;;;5.43;4.93;;;16.90;99.90;;;;;;7614658;23;20308;-72
2021/06/10 03:06:38;;;;;;;5.33;4.83;;;16.90;99.90;;;;;;7640954;23;20216;-72
2021/06/10 03:09:43;;;;;;;5.33;4.83;;;16.80;99.90;;;;;;7614369;23;20560;-72
2021/06/10 03:12:45;;;;;;;4.90;4.50;;;16.80;99.90;;;;;;7614384;23;20555;-72
2021/06/10 03:15:49;;;;;;;4.80;4.40;;;16.70;99.90;;;;;;7640220;23;20161;-72
2021/06/10 03:18:52;;;;;;;4.90;4.50;;;16.60;99.90;;;;;;7614986;23;20495;-72
2021/06/10 03:21:55;;;;;;;5.00;4.50;;;16.50;99.90;;;;;;7614934;23;20571;-72
2021/06/10 03:25:00;;;;;;;4.77;4.23;;;16.50;99.90;;;;;;7640331;23;20240;-72
2021/06/10 03:28:04;;;;;;;5.57;4.37;;;16.50;99.90;;;;;;7640123;23;20168;-72
2021/06/10 03:31:07;;;;;;;5.47;4.20;;;16.40;99.90;;;;;;7614273;23;20176;-72
2021/06/10 03:34:09;;;;;;;4.90;4.23;;;16.40;99.90;;;;;;7640215;23;20181;-72
2021/06/10 03:37:13;;;;;;;5.13;4.63;;;16.30;99.90;;;;;;7614604;23;20189;-72
2021/06/10 03:40:18;;;;;;;6.30;5.70;;;16.30;99.90;;;;;;7639750;23;20485;-72
2021/06/10 03:43:21;;;;;;;7.27;6.30;;;16.20;99.90;;;;;;7640186;23;20180;-72
2021/06/10 03:46:24;;;;;;;6.37;5.77;;;16.20;99.90;;;;;;7613654;23;20173;-72
2021/06/10 03:49:28;;;;;;;7.00;6.13;;;16.10;99.90;;;;;;7614626;23;20219;-72
2021/06/10 03:52:30;;;;;;;6.77;6.07;;;16.10;99.90;;;;;;7613350;23;20542;-72
2021/06/10 03:55:33;;;;;;;7.87;7.07;;;16.00;99.90;;;;;;7640312;23;20229;-72
2021/06/10 03:58:36;;;;;;;8.10;7.37;;;16.00;99.90;;;;;;7640151;23;20503;-72
2021/06/10 04:01:40;;;;;;;7.97;7.27;;;16.00;99.90;;;;;;7613602;23;20645;-72
2021/06/10 04:04:44;;;;;;;8.47;7.17;;;16.00;99.90;;;;;;7614467;23;20615;-72
2021/06/10 04:07:47;;;;;;;8.97;8.00;;;16.10;99.90;;;;;;7639476;23;20170;-72
2021/06/10 04:10:51;;;;;;;8.27;7.47;;;16.10;99.90;;;;;;7613889;23;20499;-72
2021/06/10 04:13:54;;;;;;;8.67;7.87;;;16.20;99.90;;;;;;7613479;23;20276;-72
2021/06/10 04:16:56;;;;;;;8.03;7.33;;;16.20;99.90;;;;;;7639502;23;20165;-72
2021/06/10 04:19:59;;;;;;;9.00;8.20;;;16.20;99.90;;;;;;7613932;23;20801;-72
2021/06/10 04:23:02;;;;;;;8.67;7.87;;;16.20;99.90;;;;;;7613830;23;20161;-72
2021/06/10 04:26:05;;;;;;;8.93;8.07;;;16.20;99.90;;;;;;7639613;23;20243;-72
2021/06/10 04:29:07;;;;;;;10.10;9.07;;;16.30;99.90;;;;;;7639719;23;20164;-72
2021/06/10 04:32:10;;;;;;;9.67;8.67;;;16.20;99.90;;;;;;7639260;23;20208;-72
2021/06/10 04:35:14;;;;;;;9.73;8.23;;;16.30;99.90;;;;;;7589243;23;20192;-72
2021/06/10 04:38:17;;;;;;;9.10;8.23;;;16.40;99.90;;;;;;7613327;23;20194;-72
2021/06/10 04:41:20;;;;;;;9.60;8.70;;;16.40;99.90;;;;;;7613957;23;20164;-72
2021/06/10 04:44:23;;;;;;;8.60;7.80;;;16.40;99.90;;;;;;7612811;23;20552;-72
2021/06/10 04:47:26;;;;;;;9.63;8.60;;;16.30;99.90;;;;;;7589507;23;20177;-72
2021/06/10 04:50:30;;;;;;;8.43;7.63;;;16.30;99.90;;;;;;7613545;23;20589;-72
2021/06/10 04:53:33;;;;;;;8.70;7.90;;;16.40;99.90;;;;;;7638886;23;20185;-72
2021/06/10 04:56:36;;;;;;;9.23;8.30;;;16.40;99.90;;;;;;7614405;23;20170;-72
2021/06/10 04:59:38;;;;;;;8.13;7.43;;;16.40;99.90;;;;;;7638799;23;20192;-72
2021/06/10 05:02:41;;;;;;;9.40;8.50;;;16.40;99.90;;;;;;7639501;23;20171;-73
2021/06/10 05:05:43;;;;;;;8.73;7.80;;;16.40;99.90;;;;;;7639622;23;20238;-73
2021/06/10 05:08:47;;;;;;;9.17;7.87;;;16.50;99.90;;;;;;7639237;23;20608;-73
2021/06/10 05:11:49;;;;;;;8.87;8.07;;;16.60;99.90;;;;;;7613653;23;20176;-73
2021/06/10 05:14:52;;;;;;;9.00;8.10;;;16.60;99.90;;;;;;7612793;23;20279;-73
2021/06/10 05:17:56;;;;;;;8.63;7.83;;;16.70;99.90;;;;;;7613299;23;20196;-73
2021/06/10 05:21:00;;;;;;;8.43;7.47;;;16.80;99.90;;;;;;7639622;23;20157;-73
2021/06/10 05:24:05;;;;;;;9.40;7.50;;;16.80;99.90;;;;;;7613537;23;20172;-73
2021/06/10 05:27:09;;;;;;;8.00;7.30;;;16.80;99.90;;;;;;7613753;23;20629;-73
2021/06/10 05:30:12;;;;;;;7.90;7.20;;;16.90;99.90;;;;;;7613246;23;20274;-73
2021/06/10 05:33:15;;;;;;;8.20;7.43;;;16.90;99.90;;;;;;7639280;23;20172;-73
2021/06/10 05:36:18;;;;;;;8.50;7.60;;;17.10;99.90;;;;;;7638755;23;20181;-72
2021/06/10 05:39:21;;;;;;;7.93;7.23;;;17.10;99.90;;;;;;7639501;23;20168;-72
2021/06/10 05:42:24;;;;;;;7.97;7.20;;;17.20;99.90;;;;;;7639273;23;20168;-72
2021/06/10 05:45:27;;;;;;;7.17;6.57;;;17.20;99.90;;;;;;7612584;23;20614;-72
2021/06/10 05:48:30;;;;;;;7.23;6.53;;;17.30;99.90;;;;;;7640088;23;20500;-73
2021/06/10 05:51:33;;;;;;;6.63;6.03;;;17.40;99.90;;;;;;7640492;23;20165;-72
2021/06/10 05:54:36;;;;;;;6.80;6.20;;;17.40;99.90;;;;;;7641256;23;20189;-72
2021/06/10 05:57:39;;;;;;;6.53;5.93;;;17.60;99.90;;;;;;7615410;23;20204;-73
2021/06/10 06:00:42;;;;;;;6.87;6.13;;;17.60;99.90;;;;;;7615250;23;20177;-73
2021/06/10 06:03:45;;;;;;;8.07;6.10;;;17.60;99.90;;;;;;7592021;23;20177;-73
2021/06/10 06:06:48;;;;;;;6.67;5.77;;;17.70;99.90;;;;;;7615843;23;20169;-72
2021/06/10 06:09:51;;;;;;;7.00;6.40;;;17.80;99.90;;;;;;7615689;23;20203;-72
2021/06/10 06:12:56;;;;;;;6.30;5.80;;;17.80;99.90;;;;;;7615259;23;20173;-72
2021/06/10 06:16:05;;;;;;;9.77;6.23;;;17.90;99.90;;;;;;7641906;23;20556;-72
2021/06/10 06:19:13;;;;;;;7.70;6.43;;;18.00;99.90;;;;;;7616287;23;20219;-72
2021/06/10 06:22:17;;;;;;;7.27;6.17;;;18.10;99.90;;;;;;7640856;23;20277;-72
2021/06/10 06:25:21;;;;;;;6.00;5.50;;;18.20;99.90;;;;;;7615354;23;20181;-72
2021/06/10 06:28:24;;;;;;;6.83;5.90;;;18.30;99.90;;;;;;7615073;23;20169;-72
2021/06/10 06:31:27;;;;;;;8.03;6.17;;;18.50;99.90;;;;;;7616436;23;20165;-72
2021/06/10 06:34:30;;;;;;;6.97;6.33;;;18.60;99.90;;;;;;7615343;23;20185;-73
2021/06/10 06:37:34;;;;;;;7.00;6.40;;;18.80;99.90;;;;;;7615303;23;20191;-73
2021/06/10 06:40:38;;;;;;;6.33;5.83;;;19.00;99.90;;;;;;7641118;23;20169;-73
2021/06/10 06:43:40;;;;;;;6.00;5.40;;;19.30;99.90;;;;;;7614190;23;20169;-72
2021/06/10 06:46:46;;;;;;;5.73;5.23;;;19.50;99.90;;;;;;7615102;23;20541;-73
2021/06/10 06:49:49;;;;;;;5.50;5.10;;;19.70;99.90;;;;;;7614801;23;20555;-72
2021/06/10 06:52:52;;;;;;;5.10;4.70;;;19.90;99.90;;;;;;7614401;23;20248;-72
2021/06/10 06:55:57;;;;;;;5.10;4.60;;;20.00;99.90;;;;;;7615026;23;20195;-72
2021/06/10 06:59:18;;;;;;;5.87;4.77;;;20.30;99.90;;;;;;7640350;23;20189;-72
2021/06/10 07:02:21;;;;;;;6.13;4.10;;;20.50;99.90;;;;;;7614956;23;20165;-72
2021/06/10 07:05:24;;;;;;;5.27;4.70;;;20.80;99.90;;;;;;7614444;23;20684;-72
2021/06/10 07:08:29;;;;;;;4.23;3.90;;;21.00;99.90;;;;;;7641100;23;20169;-72
2021/06/10 07:11:36;;;;;;;4.40;3.87;;;21.20;99.90;;;;;;7591918;23;20175;-72
2021/06/10 07:14:39;;;;;;;5.00;4.47;;;21.50;99.90;;;;;;7640644;23;20189;-72
2021/06/10 07:17:42;;;;;;;4.60;4.07;;;21.60;99.60;;;;;;7641332;23;20471;-72
2021/06/10 07:20:46;;;;;;;4.20;3.60;;;21.80;98.10;;;;;;7640346;23;20165;-72
2021/06/10 07:23:49;;;;;;;3.93;3.50;;;22.00;97.50;;;;;;7640780;23;20504;-72
2021/06/10 07:26:52;;;;;;;3.87;3.40;;;22.20;96.60;;;;;;7641807;23;20169;-72
2021/06/10 07:29:58;;;;;;;3.47;3.00;;;22.40;95.60;;;;;;7641624;23;20168;-72
2021/06/10 07:33:03;;;;;;;3.73;3.43;;;22.60;94.50;;;;;;7640670;23;20164;-72
2021/06/10 07:36:06;;;;;;;3.50;3.10;;;23.00;94.50;;;;;;7639771;23;20192;-72
2021/06/10 07:39:10;;;;;;;5.80;3.50;;;23.30;92.00;;;;;;7641075;23;20177;-72
2021/06/10 07:42:13;;;;;;;4.60;3.17;;;23.60;90.80;;;;;;7614619;23;20225;-72
2021/06/10 07:45:16;;;;;;;4.17;3.50;;;23.70;90.30;;;;;;7640518;23;20691;-72
2021/06/10 07:48:19;;;;;;;3.50;3.00;;;24.00;88.60;;;;;;7640547;23;20645;-71
2021/06/10 07:51:22;;;;;;;3.87;3.57;;;24.00;83.70;;;;;;7640014;23;20504;-71
2021/06/10 07:54:25;;;;;;;3.10;2.90;;;24.20;82.50;;;;;;7614626;23;20189;-72
2021/06/10 07:57:28;;;;;;;2.73;2.50;;;24.40;82.00;;;;;;7613841;23;20287;-72
2021/06/10 08:00:31;;;;;;;3.37;3.10;;;24.60;79.10;;;;;;7614665;23;20166;-72
2021/06/10 08:03:34;;;;;;;5.57;3.40;;;24.80;76.70;;;;;;7589668;23;20192;-71
2021/06/10 08:06:36;;;;;;;3.67;3.27;;;25.00;76.10;;;;;;7614226;23;20179;-71
2021/06/10 08:09:39;;;;;;;3.33;2.70;;;25.10;75.30;;;;;;7640560;23;20188;-71
2021/06/10 08:12:42;;;;;;;2.80;2.60;;;25.40;72.30;;;;;;7640313;23;20585;-71
2021/06/10 08:15:45;;;;;;;3.60;2.70;;;25.60;70.60;;;;;;7614056;23;20200;-71
2021/06/10 08:18:48;;;;;;;4.60;3.00;;;25.80;69.90;;;;;;7613489;23;20264;-71
2021/06/10 08:21:51;;;;;;;2.60;2.40;;;26.00;68.80;;;;;;7640260;23;20180;-71
2021/06/10 08:24:54;;;;;;;2.63;2.43;;;25.70;66.20;;;;;;7640297;23;20165;-71
2021/06/10 08:28:04;;;;;;;3.90;2.58;;;25.90;67.00;;;;;;7614197;23;20519;-71
2021/06/10 08:31:09;;;;;;;2.83;2.55;;;26.10;64.30;;;;;;7640729;23;20164;-71
2021/06/10 08:34:11;;;;;;;2.72;2.05;;;26.30;59.70;;;;;;7613689;23;20594;-71
2021/06/10 08:37:14;;;;;;;2.70;2.50;;;26.50;63.10;;;;;;7640364;23;20188;-71
2021/06/10 08:40:17;;;;;;;2.60;2.40;;;26.50;59.40;;;;;;7640013;23;20168;-71
2021/06/10 08:43:20;;;;;;;2.60;2.40;;;26.30;62.30;;;;;;7639389;23;20547;-71
2021/06/10 08:46:25;;;;;;;4.13;2.38;;;26.50;63.10;;;;;;7640027;23;20169;-71
2021/06/10 08:49:30;;;;;;;2.78;2.42;;;26.60;61.20;;;;;;7640026;23;20169;-71
2021/06/10 08:52:33;;;;;;;2.25;2.05;;;26.50;59.70;;;;;;7614372;23;20594;-71
2021/06/10 08:55:36;;;;;;;3.08;2.40;;;26.40;60.40;;;;;;7639970;23;20188;-71
2021/06/10 08:58:39;;;;;;;2.63;2.40;;;26.30;59.00;;;;;;7593577;23;20205;-71
2021/06/10 09:01:43;;;;;;;2.88;2.67;;;26.50;59.70;;;;;;7577397;23;20180;-71
2021/06/10 09:04:47;;;;;;;2.97;2.45;;;26.20;57.60;;;;;;7603162;23;20150;-71
2021/06/10 09:07:55;;;;;;;3.83;2.60;;;26.30;59.00;;;;;;7578009;23;20175;-71
2021/06/10 09:11:07;;;;;;;3.05;2.10;;;26.60;56.60;;;;;;7604033;23;20174;-71
2021/06/10 09:14:10;;;;;;;4.55;2.42;;;26.60;58.00;;;;;;7577408;23;20543;-71
2021/06/10 09:17:43;;;;;;;2.28;2.10;;;26.60;56.40;;;;;;7577742;23;20173;-71
2021/06/10 09:20:46;;;;;;;2.70;2.50;;;27.10;57.80;;;;;;7577431;23;20165;-71
2021/06/10 09:23:49;;;;;;;2.05;1.88;;;27.30;56.90;;;;;;7603179;23;20162;-71
2021/06/10 09:27:11;;;;;;;2.90;2.40;;;27.10;56.50;;;;;;7604537;23;20633;-71
2021/06/10 09:30:47;;;;;;;2.70;2.50;;;26.80;56.60;;;;;;7605685;23;20150;-71
2021/06/10 09:33:50;;;;;;;3.65;2.30;;;27.00;53.10;;;;;;7555707;23;20170;-71
2021/06/10 09:36:53;;;;;;;2.92;2.20;;;27.30;53.70;;;;;;7580526;23;20208;-71
2021/06/10 09:39:57;;;;;;;2.20;2.00;;;27.20;53.20;;;;;;7605641;23;20566;-71
2021/06/10 09:43:00;;;;;;;2.50;2.30;;;26.70;53.80;;;;;;7605077;23;20217;-71
2021/06/10 09:46:03;;;;;;;2.28;2.08;;;26.30;54.60;;;;;;7605268;23;20379;-71
2021/06/10 09:49:07;;;;;;;2.10;2.00;;;26.70;54.40;;;;;;7579912;23;20169;-71
2021/06/10 09:52:09;;;;;;;2.15;1.95;;;27.30;54.40;;;;;;7605549;23;20189;-71
2021/06/10 09:55:29;;;;;;;5.03;2.00;;;27.70;52.90;;;;;;7604840;23;20549;-71
2021/06/10 09:58:41;;;;;;;2.85;1.98;;;27.50;51.60;;;;;;7555523;23;20284;-71
2021/06/10 10:01:43;;;;;;;2.95;1.80;;;27.30;51.20;;;;;;7579333;23;20189;-71
2021/06/10 10:05:08;;;;;;;2.10;1.90;;;27.50;52.30;;;;;;7579194;23;20177;-71
2021/06/10 10:08:14;;;;;;;3.13;2.05;;;27.80;48.80;;;;;;7605635;23;20233;-71
2021/06/10 10:11:18;;;;;;;2.47;1.73;;;27.90;48.80;;;;;;7605295;23;20157;-71
2021/06/10 10:14:20;;;;;;;1.50;1.40;;;28.00;48.50;;;;;;7579924;23;20181;-71
2021/06/10 10:17:24;;;;;;;2.33;1.88;;;28.30;50.30;;;;;;7579199;23;20177;-71
2021/06/10 10:20:27;;;;;;;4.38;1.80;;;28.80;50.00;;;;;;7580497;23;20602;-71
2021/06/10 10:23:31;;;;;;;2.67;2.03;;;29.10;48.30;;;;;;7579178;23;20170;-71
2021/06/10 10:26:36;;;;;;;3.63;1.95;;;29.20;47.90;;;;;;7579107;23;20189;-71
2021/06/10 10:29:42;;;;;;;2.42;1.73;;;29.30;46.70;;;;;;7579578;23;20157;-71
2021/06/10 10:32:45;;;;;;;1.60;1.50;;;29.30;46.70;;;;;;7578607;23;20212;-71
2021/06/10 10:36:03;;;;;;;3.05;1.58;;;29.50;46.50;;;;;;7578843;23;20516;-71
2021/06/10 10:39:08;;;;;;;2.45;1.58;;;30.00;46.90;;;;;;7579270;23;20174;-71
2021/06/10 10:42:14;;;;;;;1.27;1.20;;;30.00;45.10;;;;;;7604790;23;20232;-71
2021/06/10 10:45:26;;;;;;;3.10;1.50;;;29.70;43.80;;;;;;7604843;23;20225;-71
2021/06/10 10:48:34;;;;;;;3.17;1.48;;;29.60;45.30;;;;;;7579147;23;20150;-71
2021/06/10 10:51:37;;;;;;;1.40;1.30;;;29.70;45.00;;;;;;7579472;23;20543;-71
2021/06/10 10:54:39;;;;;;;1.30;1.20;;;29.70;44.30;;;;;;7605911;23;20231;-71
2021/06/10 10:57:44;;;;;;;3.72;1.30;;;29.60;42.40;;;;;;7586900;23;20199;-71
2021/06/10 11:01:00;;;;;;;3.47;1.27;;;29.50;43.60;;;;;;7641036;23;20484;-71
2021/06/10 11:04:03;;;;;;;1.27;1.17;;;29.40;43.00;;;;;;7640473;23;20153;-71
2021/06/10 11:07:26;;;;;;;3.03;1.10;;;29.70;43.10;;;;;;7615404;23;20192;-71
2021/06/10 11:10:49;;;;;;;1.38;0.95;;;29.90;41.90;;;;;;7640385;23;20176;-71
2021/06/10 11:13:52;;;;;;;1.45;1.20;;;30.20;40.70;;;;;;7614295;23;20180;-71
2021/06/10 11:17:21;;;;;;;1.20;1.10;;;30.30;42.40;;;;;;7640724;23;20195;-71
2021/06/10 11:20:37;;;;;;;1.23;1.13;;;30.60;42.00;;;;;;7640945;23;20152;-71
2021/06/10 11:23:41;;;;;;;1.20;1.10;;;31.10;42.20;;;;;;7614512;23;20244;-71
2021/06/10 11:26:50;;;;;;;1.17;1.00;;;31.70;41.80;;;;;;7616458;23;20553;-71
2021/06/10 11:30:17;;;;;;;1.20;1.08;;;31.80;40.20;;;;;;7616477;23;20547;-71
2021/06/10 11:33:27;;;;;;;1.10;0.98;;;32.20;40.90;;;;;;7641089;23;20617;-71
2021/06/10 11:36:30;;;;;;;1.08;0.95;;;31.90;39.80;;;;;;7616182;23;20247;-71
2021/06/10 11:39:36;;;;;;;1.50;1.00;;;31.50;39.50;;;;;;7641086;23;20172;-71
2021/06/10 11:42:44;;;;;;;1.90;1.23;;;31.40;40.40;;;;;;7615369;23;20263;-71
2021/06/10 11:45:48;;;;;;;1.25;1.08;;;31.50;40.00;;;;;;7641559;23;20173;-71
2021/06/10 11:48:53;;;;;;;1.42;0.80;;;31.80;39.70;;;;;;7640804;23;20547;-71
2021/06/10 11:51:56;;;;;;;2.25;0.90;;;31.40;38.70;;;;;;7615739;23;20180;-71
2021/06/10 11:55:22;;;;;;;1.55;1.10;;;31.50;39.40;;;;;;7641189;23;20200;-71
2021/06/10 11:58:30;;;;;;;1.58;1.10;;;32.00;38.40;;;;;;7613458;23;20220;-71
2021/06/10 12:01:34;;;;;;;1.63;1.00;;;32.00;38.60;;;;;;7614206;23;20176;-71
2021/06/10 12:04:40;;;;;;;1.30;1.20;;;32.20;38.90;;;;;;7614565;23;20173;-71
2021/06/10 12:07:43;;;;;;;1.30;1.20;;;32.70;38.00;;;;;;7641628;23;20153;-71
2021/06/10 12:11:00;;;;;;;0.82;0.82;;;33.10;38.40;;;;;;7640905;23;20243;-71
2021/06/10 12:14:05;;;;;;;1.60;1.10;;;33.10;37.80;;;;;;7614801;23;20162;-71
2021/06/10 12:17:08;;;;;;;1.60;1.35;;;32.80;38.90;;;;;;7640280;23;20196;-71
2021/06/10 12:20:16;;;;;;;1.67;1.10;;;32.50;38.70;;;;;;7614539;23;20172;-71
2021/06/10 12:23:37;;;;;;;2.40;1.27;;;32.90;38.60;;;;;;7640717;23;20173;-70
2021/06/10 12:26:40;;;;;;;1.80;1.30;;;32.80;38.10;;;;;;7615504;23;20169;-70
2021/06/10 12:29:53;;;;;;;2.72;1.23;;;32.00;38.40;;;;;;7614430;23;20177;-70
2021/06/10 12:33:20;;;;;;;1.23;1.13;;;31.80;39.00;;;;;;7590009;23;20192;-70
2021/06/10 12:36:24;;;;;;;1.20;1.10;;;31.70;38.20;;;;;;7640690;23;20197;-70
2021/06/10 12:39:32;;;;;;;1.23;0.90;;;31.70;39.40;;;;;;7639642;23;20165;-70
2021/06/10 12:42:34;;;;;;;2.80;0.90;;;32.20;37.80;;;;;;7614652;23;20224;-70
2021/06/10 12:45:38;;;;;;;1.30;1.20;;;32.80;37.70;;;;;;7639477;23;20196;-70
2021/06/10 12:48:42;;;;;;;1.00;1.00;;;32.90;36.20;;;;;;7614418;23;20176;-71
2021/06/10 12:51:47;;;;;;;2.40;0.95;;;33.10;36.00;;;;;;7640617;23;20557;-71
2021/06/10 12:54:57;;;;;;;2.20;0.90;;;33.40;37.00;;;;;;7639498;23;20153;-71
2021/06/10 12:58:01;;;;;;;1.13;0.95;;;33.80;35.90;;;;;;7613933;23;20541;-71
2021/06/10 13:01:10;;;;;;;1.48;1.08;;;33.60;35.40;;;;;;7639604;23;20235;-71
2021/06/10 13:04:22;;;;;;;1.92;1.02;;;33.90;35.80;;;;;;7640354;23;20165;-71
2021/06/10 13:07:29;;;;;;;1.00;1.00;;;33.60;35.70;;;;;;7639806;23;20534;-71
2021/06/10 13:10:35;;;;;;;1.05;0.80;;;33.30;35.50;;;;;;7614029;23;20247;-71
2021/06/10 13:13:39;;;;;;;1.33;1.23;;;33.10;35.50;;;;;;7639912;23;20160;-71
2021/06/10 13:16:52;;;;;;;1.20;0.93;;;32.30;36.10;;;;;;7639280;23;20268;-71
2021/06/10 13:19:56;;;;;;;1.08;0.85;;;31.50;37.60;;;;;;7639774;23;20542;-71
2021/06/10 13:23:02;;;;;;;2.08;1.23;;;31.70;38.00;;;;;;7613324;23;20172;-71
2021/06/10 13:26:17;;;;;;;1.10;0.93;;;32.10;38.10;;;;;;7639663;23;20157;-71
2021/06/10 13:29:19;;;;;;;2.13;1.00;;;32.80;37.00;;;;;;7639832;23;20164;-71
2021/06/10 13:32:30;;;;;;;0.93;0.90;;;33.50;36.20;;;;;;7613372;23;20169;-71
2021/06/10 13:35:43;;;;;;;1.02;0.98;;;33.80;35.60;;;;;;7639366;23;20247;-71
2021/06/10 13:38:46;;;;;;;1.30;0.80;;;34.10;35.60;;;;;;7613470;23;20224;-71
2021/06/10 13:41:49;;;;;;;3.13;1.08;;;34.80;34.30;;;;;;7614066;23;20227;-71
2021/06/10 13:44:51;;;;;;;1.08;0.88;;;35.10;34.00;;;;;;7613786;23;20165;-71
2021/06/10 13:47:54;;;;;;;0.93;0.90;;;34.50;34.70;;;;;;7639677;23;20529;-71
2021/06/10 13:50:57;;;;;;;0.80;0.80;;;34.60;34.70;;;;;;7613598;23;20259;-71
2021/06/10 13:53:59;;;;;;;1.27;1.05;;;34.80;33.50;;;;;;7613247;23;20177;-71
2021/06/10 13:57:02;;;;;;;1.48;0.93;;;34.80;34.10;;;;;;7640122;23;20271;-71
2021/06/10 14:00:06;;;;;;;0.85;0.85;;;35.00;33.80;;;;;;7639824;23;20168;-71
2021/06/10 14:03:10;;;;;;;1.05;0.95;;;35.50;32.80;;;;;;7639670;23;20180;-71
2021/06/10 14:06:13;;;;;;;1.30;1.20;;;36.30;33.90;;;;;;7639603;23;20169;-71
2021/06/10 14:09:15;;;;;;;1.05;0.80;;;35.40;32.80;;;;;;7613602;23;20596;-71
2021/06/10 14:12:19;;;;;;;1.52;0.70;;;34.80;34.40;;;;;;7641025;23;20268;-71
2021/06/10 14:15:22;;;;;;;0.98;0.90;;;34.50;35.10;;;;;;7640902;23;20165;-71
2021/06/10 14:18:25;;;;;;;0.70;0.70;;;34.70;35.80;;;;;;7641296;23;20161;-71
2021/06/10 14:21:27;;;;;;;1.42;1.10;;;35.10;35.50;;;;;;7640828;23;20160;-71
2021/06/10 14:24:34;;;;;;;1.17;0.80;;;35.70;34.70;;;;;;7591195;23;20173;-71
2021/06/10 14:27:37;;;;;;;0.80;0.80;;;35.60;34.70;;;;;;7641705;23;20471;-71
2021/06/10 14:33:43;;;;;;;0.75;0.75;;;35.70;35.20;;;;;;7615015;23;20263;-71
2021/06/10 14:36:46;;;;;;;0.80;0.80;;;35.60;36.20;;;;;;7614495;23;20204;-71
2021/06/10 14:39:49;;;;;;;1.75;0.90;;;35.90;34.90;;;;;;7615637;23;20539;-71
2021/06/10 14:42:52;;;;;;;1.63;1.10;;;36.70;33.50;;;;;;7641360;23;20609;-71
2021/06/10 14:45:55;;;;;;;1.15;0.90;;;37.70;32.70;;;;;;7614459;23;20177;-71
2021/06/10 14:48:58;;;;;;;1.48;1.15;;;38.40;32.20;;;;;;7591048;23;20183;-71
2021/06/10 14:52:02;;;;;;;1.25;1.08;;;38.50;30.20;;;;;;7640653;23;20169;-71
2021/06/10 14:55:06;;;;;;;0.88;0.85;;;38.40;30.40;;;;;;7615617;23;20169;-71
2021/06/10 14:58:10;;;;;;;1.00;1.00;;;38.60;30.20;;;;;;7640791;23;20201;-71
2021/06/10 15:01:14;;;;;;;1.15;1.08;;;39.10;30.50;;;;;;7614895;23;20362;-71
2021/06/10 15:04:17;;;;;;;1.17;0.90;;;39.50;31.40;;;;;;7614797;23;20173;-71
2021/06/10 15:07:20;;;;;;;1.17;0.82;;;39.60;29.80;;;;;;7640829;23;20239;-71
2021/06/10 15:10:22;;;;;;;1.05;0.90;;;38.90;30.00;;;;;;7614744;23;20180;-71
2021/06/10 15:13:24;;;;;;;0.85;0.85;;;38.90;31.00;;;;;;7640889;23;20233;-71
2021/06/10 15:16:27;;;;;;;2.83;1.00;;;39.50;30.00;;;;;;7640572;23;20188;-71
2021/06/10 15:19:29;;;;;;;0.90;0.90;;;39.90;29.30;;;;;;7614800;23;20546;-71
2021/06/10 15:22:31;;;;;;;2.53;0.85;;;40.10;30.10;;;;;;7613325;23;20176;-71
2021/06/10 15:25:34;;;;;;;1.48;1.10;;;40.30;29.80;;;;;;7638448;23;20169;-71
2021/06/10 15:28:37;;;;;;;1.15;1.05;;;40.00;29.20;;;;;;7610579;23;20232;-71
2021/06/10 15:31:40;;;;;;;1.02;0.90;;;39.70;29.30;;;;;;7633505;23;20235;-71
2021/06/10 15:34:43;;;;;;;0.80;0.80;;;39.50;29.30;;;;;;7639420;23;20165;-71
2021/06/10 15:37:46;;;;;;;0.75;0.70;;;39.00;29.00;;;;;;7614215;23;20280;-71
2021/06/10 15:40:48;;;;;;;0.90;0.90;;;39.20;30.50;;;;;;7635394;23;20168;-71
2021/06/10 15:43:52;;;;;;;1.27;1.00;;;39.50;29.50;;;;;;7640303;23;20169;-71
2021/06/10 15:46:54;;;;;;;1.15;0.88;;;39.60;28.80;;;;;;7613376;23;20177;-71
2021/06/10 15:49:57;;;;;;;0.90;0.90;;;39.30;29.50;;;;;;7612888;23;20172;-71
2021/06/10 15:53:00;;;;;;;2.75;0.88;;;39.40;29.80;;;;;;7640309;23;20176;-71
2021/06/10 15:56:05;;;;;;;1.20;0.80;;;39.70;30.40;;;;;;7612546;23;20185;-71
2021/06/10 15:59:07;;;;;;;1.23;0.77;;;39.70;30.10;;;;;;7614249;23;20201;-71
2021/06/10 16:02:10;;;;;;;1.33;0.80;;;39.70;30.80;;;;;;7638277;23;20176;-71
2021/06/10 16:05:19;;;;;;;1.02;0.93;;;39.80;30.00;;;;;;7638765;23;20169;-71
2021/06/10 16:08:24;;;;;;;0.73;0.73;;;39.60;29.60;;;;;;7639984;23;20161;-71